Overview Statistics Trail Chart Weather Telemetry Raw packets
 

This is the latest recevied weather packets stored in our database for station/object IN3MWE-10. If no packets are shown the sender has not sent any weather packets the latest 10 day(s).

<< 1 2 3 4 5 6 7 >>
Time Temp. Humidity Pressure Rain* Wind** Luminosity Snow
1788601818 32.78° C 38% 981.7 hPa - - - -
1788600918 33.33° C 38% 981.9 hPa - - - -
1788600018 31.67° C 42% 982 hPa - - - -
1788599117 30.56° C 43% 982.1 hPa - - - -
1788598217 30.56° C 44% 982.4 hPa - - - -
1788597317 27.22° C 55% 982.4 hPa - - - -
1788596417 25.56° C 59% 982.6 hPa - - - -
1788595517 25.56° C 62% 982.4 hPa - - - -
1788594617 26.11° C 59% 982.3 hPa - - - -
1788593717 23.89° C 68% 982.3 hPa - - - -
1788592820 23.89° C 72% 982.2 hPa - - - -
1788591916 23.33° C 77% 982.1 hPa - - - -
1788591016 22.78° C 82% 982.2 hPa - - - -
1788590116 22.78° C 79% 982.1 hPa - - - -
1788589245 21.67° C 81% 982.2 hPa - - - -
1788588316 21.67° C 85% 982.3 hPa - - - -
1788587416 21.11° C 85% 982.4 hPa - - - -
1788586515 20.56° C 86% 982.4 hPa - - - -
1788585615 20.56° C 85% 982.2 hPa - - - -
1788584715 20.56° C 81% 982.3 hPa - - - -
1788583815 20.56° C 80% 982 hPa - - - -
1788582915 20° C 84% 981.8 hPa - - - -
1788582015 20.56° C 82% 981.6 hPa - - - -
1788581115 20.56° C 81% 981.8 hPa - - - -
1788580214 20.56° C 83% 981.9 hPa - - - -

* Rain since midnight (hover to see other rain measurements)
** Current wind speed in m/s (hover to see current wind gust speed)